Chaplin, Canada
Current Conditions -  °F | °C
As of 1:00 AM on Tuesday 21 Oct 2014 (Local Time) from CYYN Reporting Station
Clear Clear  
Wind Chill: 52°   Ceiling: Unl
Heat Index: 52°   Visibility: 9mi
Dew Point: 43°   Wind: 12mph
Humidity: 71%   Direction: 180°S
Pressure: 29.67"   Gusts: 17mph
Location:  50.47°N, 106.67°W
Report Text: CYYN 210700Z AUTO 18010G15KT 9SM CLR 11/06 A2967 RMK SLP042 DENSITY ALT 3000FT
Loading
Personal Weather Stations






























Interactive Weather Map
Tropical Storm Tracking
New forecast layout! Learn more

10-Day Weather Forecast

Advertisements
Track Severe Weather on mobile